Flight Track Log - Related Links

Times and Time Zones

All times are in EDT time to prevent confusion due to time zone crossing. See the SWA1287 flight status page for this flight to view local times or setup timezone preferences in your user account.

Time Position Orientation Groundspeed Altitude Reporting Facility
EDT Latitude Longitude Course Direction KTS MPH feet Rate Location/Type
Sun 11:49:54 AM 27.7581 -97.4928 115° Southeast 167 192 600  Level Houston Center
Sun 11:51:17 AM 27.7275 -97.4192 115° Southeast 245 282 4,200 2,479 Climbing Houston Center
Sun 11:51:55 AM 27.7742 -97.4103 10° North 259 298 5,600 2,829 Climbing Houston Center
Sun 11:53:20 AM 27.8772 -97.3972 North 274 315 10,000 2,653 Climbing Houston Center
Sun 11:54:22 AM 27.9725 -97.3844 North 309 356 12,100 2,419 Climbing Houston Center
Sun 11:55:24 AM 28.0550 -97.3172 36° Northeast 361 415 15,000 2,683 Climbing Houston Center
Sun 11:56:25 AM 28.1478 -97.2781 20° North 367 422 17,600 2,293 Climbing Houston Center
Sun 11:57:27 AM 28.2225 -97.1931 45° Northeast 379 436 19,700 2,129 Climbing Houston Center
Sun 11:58:29 AM 28.3033 -97.1111 42° Northeast 389 448 22,000 1,742 Climbing Houston Center
Sun 11:59:31 AM 28.3836 -97.0236 44° Northeast 400 460 23,300 968 Climbing Houston Center
Sun 12:00:33 PM 28.4739 -96.9053 49° Northeast 413 475 24,000 290 Climbing Houston Center
Sun 12:01:35 PM 28.5300 -96.7925 60° Northeast 413 475 23,900  Descending Houston Center
Sun 12:02:37 PM 28.5878 -96.6844 59° Northeast 404 465 24,000 48 Climbing Houston Center
Sun 12:03:39 PM 28.6711 -96.6028 41° Northeast 397 457 24,000  Level Houston Center
Sun 12:04:40 PM 28.7578 -96.5283 37° Northeast 392 451 24,000 -390 Level Houston Center
Sun 12:05:42 PM 28.8594 -96.4375 38° Northeast 389 448 23,200 -1,548 Descending Houston Center
Sun 12:06:44 PM 28.9486 -96.3572 38° Northeast 406 467 20,800 -2,226 Descending Houston Center
Sun 12:07:46 PM 29.0314 -96.2828 38° Northeast 388 447 18,600 -2,081 Descending Houston Center
Sun 12:08:48 PM 29.1108 -96.2117 38° Northeast 371 427 16,500 -2,081 Descending Houston Center
Sun 12:09:50 PM 29.1875 -96.1419 38° Northeast 358 412 14,300 -1,935 Descending Houston Center
Sun 12:10:52 PM 29.2594 -96.0775 38° Northeast 338 389 12,500 -1,161 Descending Houston Center
Sun 12:11:54 PM 29.3331 -96.0003 42° Northeast 304 350 11,900 -242 Descending Houston Center
Sun 12:12:56 PM 29.3850 -95.9419 44° Northeast 290 334 12,000 -581 Climbing Houston Center
Sun 12:13:58 PM 29.4406 -95.8786 45° Northeast 284 327 10,700 -968 Descending Houston Center
Sun 12:15:00 PM 29.4994 -95.8117 45° Northeast 252 290 10,000 -823 Descending Houston Center
Sun 12:16:02 PM 29.5444 -95.7600 45° Northeast 232 267 9,000 -677 Descending Houston Center
Sun 12:17:04 PM 29.5161 -95.6969 117° Southeast 239 275 8,600 -774 Descending Houston Center
Sun 12:18:06 PM 29.4669 -95.6461 138° Southeast 240 276 7,400 -1,306 Descending Houston Center
Sun 12:19:08 PM 29.4419 -95.5811 114° Southeast 230 265 5,900 -1,308 Descending Houston Center
Sun 12:20:19 PM 29.4586 -95.4906 78° East 214 246 4,500 -968 Descending Houston Center
Sun 12:21:12 PM 29.4858 -95.4508 52° Northeast 189 217 3,900 -744 Descending Houston Center
Sun 12:22:28 PM 29.5286 -95.4078 41° Northeast 148 170 2,900 -774 Descending Houston Center
Sun 12:23:16 PM 29.5506 -95.3828 45° Northeast 157 181 2,300 -709 Descending Houston Center
Sun 12:24:18 PM 29.5794 -95.3514 43° Northeast 149 171 1,600 -677 Descending Houston Center
Sun 12:25:20 PM 29.6058 -95.3222 44° Northeast 140 161 900 -629 Descending Houston Center
Sun 12:26:22 PM 29.6311 -95.2958 42° Northeast 130 150 300 -581 Descending Houston Center
Sun 12:28:00 PM 29.6333 -95.2667 115° Southeast  Level FlightAware

Login

Don't have an account? Register now (free) for customized features, flight alerts, and more!